createdAt,value
2018-03-03T00:01:22.680Z,97676
2018-03-03T00:03:28.953Z,97676
2018-03-03T00:05:34.556Z,97677
2018-03-03T00:07:40.160Z,97681
2018-03-03T00:09:45.900Z,97678
2018-03-03T00:11:51.688Z,97674
2018-03-03T00:13:57.011Z,97671
2018-03-03T00:16:03.836Z,97679
2018-03-03T00:18:10.380Z,97679
2018-03-03T00:20:16.504Z,97677
2018-03-03T00:22:29.124Z,97679
2018-03-03T00:24:36.832Z,97678
2018-03-03T00:26:42.671Z,97669
2018-03-03T00:28:48.809Z,97673
2018-03-03T00:30:54.351Z,97664
2018-03-03T00:33:00.595Z,97672
2018-03-03T00:35:07.191Z,97672
2018-03-03T00:37:13.378Z,97671
2018-03-03T00:39:19.285Z,97670
2018-03-03T00:41:25.608Z,97669
2018-03-03T00:44:34.216Z,97668
2018-03-03T00:46:40.921Z,97668
2018-03-03T00:48:46.896Z,97669
2018-03-03T00:50:56.748Z,97668
2018-03-03T00:53:04.084Z,97672
2018-03-03T00:55:10.276Z,97666
2018-03-03T00:57:16.976Z,97665
2018-03-03T00:59:23.279Z,97665
2018-03-03T01:01:28.552Z,97664
2018-03-03T01:03:34.410Z,97664
2018-03-03T01:05:40.816Z,97663
2018-03-03T01:07:47.298Z,97666
2018-03-03T01:09:53.404Z,97667
2018-03-03T01:12:03.630Z,97671
2018-03-03T01:14:09.024Z,97665
2018-03-03T01:16:14.731Z,97666
2018-03-03T01:18:21.955Z,97667
2018-03-03T01:20:28.338Z,97665
2018-03-03T01:22:33.879Z,97666
2018-03-03T01:24:39.853Z,97662
2018-03-03T01:26:46.519Z,97661
2018-03-03T01:28:53.452Z,97654
2018-03-03T01:30:59.987Z,97652
2018-03-03T01:33:07.543Z,97649
2018-03-03T01:35:13.689Z,97648
2018-03-03T01:37:19.045Z,97645
2018-03-03T01:39:24.465Z,97644
2018-03-03T01:41:30.101Z,97651
2018-03-03T01:43:41.622Z,97650
2018-03-03T01:45:47.359Z,97642
2018-03-03T01:47:53.668Z,97649
2018-03-03T01:50:01.505Z,97653
2018-03-03T01:52:07.532Z,97651
2018-03-03T01:54:13.790Z,97651
2018-03-03T01:56:19.996Z,97647
2018-03-03T01:58:28.458Z,97647
2018-03-03T02:00:34.674Z,97651
2018-03-03T02:02:40.087Z,97654
2018-03-03T02:04:48.666Z,97653
2018-03-03T02:06:54.864Z,97647
2018-03-03T02:09:04.616Z,97653
2018-03-03T02:11:12.424Z,97645
2018-03-03T02:13:18.704Z,97658
2018-03-03T02:15:41.218Z,97646
2018-03-03T02:17:47.837Z,97641
2018-03-03T02:19:53.667Z,97636
2018-03-03T02:22:08.403Z,97635
2018-03-03T02:24:16.625Z,97638
2018-03-03T02:26:28.956Z,97636
2018-03-03T02:28:41.374Z,97622
2018-03-03T02:30:47.801Z,97615
2018-03-03T02:32:54.650Z,97612
2018-03-03T02:35:02.799Z,97606
2018-03-03T02:37:09.199Z,97608
2018-03-03T02:39:15.801Z,97618
2018-03-03T02:41:23.764Z,97619
2018-03-03T02:43:30.085Z,97623
2018-03-03T02:45:36.602Z,97618
2018-03-03T02:47:43.731Z,97630
2018-03-03T02:49:50.054Z,97628
2018-03-03T02:51:56.057Z,97627
2018-03-03T02:54:03.636Z,97622
2018-03-03T02:56:09.702Z,97625
2018-03-03T02:58:16.447Z,97630
2018-03-03T03:00:22.674Z,97628
2018-03-03T03:02:28.970Z,97636
2018-03-03T03:04:35.508Z,97639
2018-03-03T03:06:41.413Z,97636
2018-03-03T03:08:47.479Z,97632
2018-03-03T03:10:53.125Z,97630
2018-03-03T03:12:58.913Z,97631
2018-03-03T03:15:05.158Z,97635
2018-03-03T03:17:11.576Z,97633
2018-03-03T03:19:17.459Z,97639
2018-03-03T03:21:23.713Z,97637
2018-03-03T03:23:30.112Z,97635
2018-03-03T03:25:36.237Z,97638
2018-03-03T03:27:42.463Z,97637
2018-03-03T03:29:47.867Z,97634
2018-03-03T03:31:54.160Z,97633
2018-03-03T03:34:01.961Z,97631
2018-03-03T03:36:08.022Z,97623
2018-03-03T03:38:14.132Z,97622
2018-03-03T03:40:20.495Z,97624
2018-03-03T03:42:26.053Z,97622
2018-03-03T03:44:32.343Z,97620
2018-03-03T03:46:38.855Z,97618
2018-03-03T03:48:44.349Z,97616
2018-03-03T03:50:50.847Z,97610
2018-03-03T03:52:56.836Z,97603
2018-03-03T03:55:05.072Z,97608
2018-03-03T03:57:10.928Z,97614
2018-03-03T03:59:17.142Z,97606
2018-03-03T04:01:46.094Z,97611
2018-03-03T04:03:52.470Z,97604
2018-03-03T04:05:58.900Z,97603
2018-03-03T04:08:06.629Z,97596
2018-03-03T04:10:14.817Z,97596
2018-03-03T04:12:20.395Z,97593
2018-03-03T04:14:25.969Z,97584
2018-03-03T04:16:31.727Z,97583
2018-03-03T04:18:37.606Z,97582
2018-03-03T04:20:43.644Z,97579
2018-03-03T04:22:49.057Z,97572
2018-03-03T04:24:55.366Z,97579
2018-03-03T04:27:04.689Z,97573
2018-03-03T04:29:11.309Z,97577
2018-03-03T04:31:25.572Z,97568
2018-03-03T04:33:32.812Z,97571
2018-03-03T04:35:39.101Z,97565
2018-03-03T04:37:47.452Z,97567
2018-03-03T04:39:53.379Z,97566
2018-03-03T04:41:59.643Z,97563
2018-03-03T04:44:05.811Z,97564
2018-03-03T04:46:11.329Z,97559
2018-03-03T04:48:17.589Z,97559
2018-03-03T04:50:32.153Z,97550
2018-03-03T04:52:37.657Z,97546
2018-03-03T04:54:43.639Z,97548
2018-03-03T04:57:04.308Z,97543
2018-03-03T04:59:09.788Z,97542
2018-03-03T05:01:15.958Z,97546
2018-03-03T05:03:29.069Z,97541
2018-03-03T05:05:34.908Z,97537
2018-03-03T05:07:41.101Z,97534
2018-03-03T05:09:47.521Z,97538
2018-03-03T05:11:53.737Z,97538
2018-03-03T05:14:07.584Z,97538
2018-03-03T05:16:14.303Z,97537
2018-03-03T05:18:19.880Z,97532
2018-03-03T05:20:25.674Z,97531
2018-03-03T05:22:31.296Z,97528
2018-03-03T05:24:44.688Z,97533
2018-03-03T05:26:50.215Z,97532
2018-03-03T05:28:55.708Z,97525
2018-03-03T05:31:05.088Z,97529
2018-03-03T05:33:11.997Z,97523
2018-03-03T05:35:18.490Z,97525
2018-03-03T05:37:25.428Z,97526
2018-03-03T05:39:30.913Z,97522
2018-03-03T05:41:37.527Z,97513
2018-03-03T05:43:43.357Z,97520
2018-03-03T05:45:48.900Z,97522
2018-03-03T05:47:55.133Z,97514
2018-03-03T05:50:02.442Z,97510
2018-03-03T05:52:08.977Z,97507
2018-03-03T05:54:15.950Z,97508
2018-03-03T05:56:21.796Z,97506
2018-03-03T05:58:28.121Z,97513
2018-03-03T06:00:34.191Z,97512
2018-03-03T06:02:41.548Z,97526
2018-03-03T06:04:47.693Z,97523
2018-03-03T06:06:53.326Z,97529
2018-03-03T06:09:00.390Z,97530
2018-03-03T06:11:07.020Z,97530
2018-03-03T06:13:12.695Z,97533
2018-03-03T06:15:18.128Z,97534
2018-03-03T06:17:23.984Z,97528
2018-03-03T06:19:29.843Z,97529
2018-03-03T06:21:35.616Z,97527
2018-03-03T06:23:41.021Z,97530
2018-03-03T06:25:46.367Z,97527
2018-03-03T06:27:52.156Z,97533
2018-03-03T06:29:57.649Z,97541
2018-03-03T06:32:03.073Z,97536
2018-03-03T06:34:09.384Z,97541
2018-03-03T06:36:15.496Z,97540
2018-03-03T06:38:20.859Z,97540
2018-03-03T06:40:27.330Z,97541
2018-03-03T06:42:32.951Z,97539
2018-03-03T06:44:38.204Z,97542
2018-03-03T06:46:43.608Z,97542
2018-03-03T06:48:48.975Z,97541
2018-03-03T06:50:55.272Z,97548
2018-03-03T06:53:02.748Z,97549
2018-03-03T06:55:08.824Z,97553
2018-03-03T06:57:15.528Z,97548
2018-03-03T06:59:20.880Z,97548
2018-03-03T07:01:26.229Z,97550
2018-03-03T07:03:31.935Z,97551
2018-03-03T07:05:38.014Z,97544
2018-03-03T07:07:43.519Z,97550
2018-03-03T07:09:48.887Z,97548
2018-03-03T07:11:55.096Z,97549
2018-03-03T07:14:03.704Z,97551
2018-03-03T07:16:09.364Z,97552
2018-03-03T07:18:15.245Z,97552
2018-03-03T07:20:25.596Z,97553
2018-03-03T07:22:31.454Z,97553
2018-03-03T07:24:37.235Z,97559
2018-03-03T07:26:42.629Z,97558
2018-03-03T07:28:47.960Z,97557
2018-03-03T07:30:54.486Z,97552
2018-03-03T07:33:03.838Z,97555
2018-03-03T07:35:09.225Z,97556
2018-03-03T07:37:15.746Z,97556
2018-03-03T07:39:22.264Z,97556
2018-03-03T07:41:27.951Z,97557
2018-03-03T07:43:36.156Z,97551
2018-03-03T07:45:42.533Z,97549
2018-03-03T07:47:47.795Z,97547
2018-03-03T07:50:01.723Z,97551
2018-03-03T07:52:06.977Z,97548
2018-03-03T07:54:12.268Z,97543
2018-03-03T07:56:24.071Z,97542
2018-03-03T07:58:34.394Z,97538
2018-03-03T08:00:39.980Z,97538
2018-03-03T08:02:45.636Z,97541
2018-03-03T08:04:51.289Z,97543
2018-03-03T08:06:56.840Z,97540
2018-03-03T08:09:04.630Z,97547
2018-03-03T08:11:10.095Z,97541
2018-03-03T08:13:15.415Z,97549
2018-03-03T08:15:26.572Z,97543
2018-03-03T08:17:33.072Z,97541
2018-03-03T08:19:38.972Z,97542
2018-03-03T08:21:45.044Z,97540
2018-03-03T08:23:50.414Z,97542
2018-03-03T08:25:55.684Z,97549
2018-03-03T08:28:01.423Z,97546
2018-03-03T08:30:06.839Z,97548
2018-03-03T08:32:12.179Z,97551
2018-03-03T08:34:17.904Z,97550
2018-03-03T08:36:23.620Z,97555
2018-03-03T08:38:29.153Z,97553
2018-03-03T08:40:34.993Z,97550
2018-03-03T08:42:40.389Z,97554
2018-03-03T08:44:46.200Z,97555
2018-03-03T08:46:52.310Z,97550
2018-03-03T08:48:58.308Z,97547
2018-03-03T08:51:03.880Z,97543
2018-03-03T08:53:09.509Z,97552
2018-03-03T08:55:15.762Z,97550
2018-03-03T08:57:21.440Z,97547
2018-03-03T08:59:27.369Z,97545
2018-03-03T09:01:32.924Z,97549
2018-03-03T09:03:38.406Z,97549
2018-03-03T09:05:44.305Z,97556
2018-03-03T09:07:49.784Z,97558
2018-03-03T09:09:55.144Z,97556
2018-03-03T09:12:00.845Z,97555
2018-03-03T09:14:06.146Z,97552
2018-03-03T09:16:11.751Z,97556
2018-03-03T09:18:19.010Z,97555
2018-03-03T09:20:25.111Z,97552
2018-03-03T09:22:30.535Z,97554
2018-03-03T09:24:37.258Z,97549
2018-03-03T09:26:42.672Z,97556
2018-03-03T09:28:48.010Z,97553
2018-03-03T09:30:53.555Z,97554
2018-03-03T09:33:05.034Z,97546
2018-03-03T09:35:15.310Z,97552
2018-03-03T09:37:20.943Z,97549
2018-03-03T09:39:27.148Z,97551
2018-03-03T09:41:32.548Z,97550
2018-03-03T09:43:38.168Z,97542
2018-03-03T09:45:43.536Z,97546
2018-03-03T09:47:48.765Z,97551
2018-03-03T09:49:54.677Z,97550
2018-03-03T09:52:00.275Z,97552
2018-03-03T09:54:05.726Z,97544
2018-03-03T09:56:11.586Z,97551
2018-03-03T09:58:16.924Z,97546
2018-03-03T10:00:22.377Z,97549
2018-03-03T10:02:28.296Z,97554
2018-03-03T10:04:33.612Z,97555
2018-03-03T10:06:39.084Z,97557
2018-03-03T10:08:44.846Z,97558
2018-03-03T10:10:50.225Z,97558
2018-03-03T10:12:55.799Z,97556
2018-03-03T10:15:01.975Z,97559
2018-03-03T10:17:07.495Z,97557
2018-03-03T10:19:12.897Z,97560
2018-03-03T10:21:18.792Z,97560
2018-03-03T10:23:24.695Z,97560
2018-03-03T10:25:30.401Z,97559
2018-03-03T10:27:35.947Z,97558
2018-03-03T10:29:41.464Z,97554
2018-03-03T10:31:47.310Z,97554
2018-03-03T10:33:53.367Z,97557
2018-03-03T10:35:58.676Z,97557
2018-03-03T10:38:03.904Z,97558
2018-03-03T10:40:09.966Z,97557
2018-03-03T10:42:15.232Z,97558
2018-03-03T10:44:21.529Z,97559
2018-03-03T10:46:27.599Z,97562
2018-03-03T10:48:32.864Z,97560
2018-03-03T10:50:38.579Z,97562
2018-03-03T11:08:07.047Z,97557
2018-03-03T11:10:12.640Z,97559
2018-03-03T11:12:18.060Z,97558
2018-03-03T11:14:23.411Z,97562
2018-03-03T11:16:29.106Z,97557
2018-03-03T11:18:35.234Z,97560
2018-03-03T11:20:40.680Z,97560
2018-03-03T11:22:46.283Z,97562
2018-03-03T11:24:55.085Z,97568
2018-03-03T11:27:00.525Z,97565
2018-03-03T11:29:06.228Z,97568
2018-03-03T11:31:11.766Z,97568
2018-03-03T11:33:17.057Z,97563
2018-03-03T11:35:23.402Z,97563
2018-03-03T11:37:28.821Z,97557
2018-03-03T11:39:34.148Z,97555
2018-03-03T11:41:40.635Z,97555
2018-03-03T11:43:46.067Z,97552
2018-03-03T11:45:51.343Z,97551
2018-03-03T11:47:56.940Z,97555
2018-03-03T11:50:02.893Z,97551
2018-03-03T11:52:08.253Z,97546
2018-03-03T11:54:13.862Z,97541
2018-03-03T11:56:19.128Z,97548
2018-03-03T11:58:24.605Z,97544
2018-03-03T12:00:30.293Z,97547
2018-03-03T12:02:35.856Z,97539
2018-03-03T12:04:41.519Z,97541
2018-03-03T12:06:51.681Z,97544
2018-03-03T12:08:58.527Z,97543
2018-03-03T12:11:04.063Z,97547
2018-03-03T12:13:10.497Z,97543
2018-03-03T12:15:16.123Z,97549
2018-03-03T12:17:21.539Z,97549
2018-03-03T12:19:27.115Z,97548
2018-03-03T12:21:32.825Z,97543
2018-03-03T12:23:38.835Z,97540
2018-03-03T12:25:45.154Z,97533
2018-03-03T12:27:50.590Z,97531
2018-03-03T12:29:56.853Z,97532
2018-03-03T12:32:02.629Z,97534
2018-03-03T12:34:08.086Z,97530
2018-03-03T12:36:13.579Z,97535
2018-03-03T12:38:19.231Z,97540
2018-03-03T12:40:24.569Z,97538
2018-03-03T12:42:30.183Z,97535
2018-03-03T12:44:36.231Z,97530
2018-03-03T12:46:41.728Z,97534
2018-03-03T12:48:48.050Z,97534
2018-03-03T12:50:53.793Z,97536
2018-03-03T12:52:59.546Z,97535
2018-03-03T12:55:06.151Z,97535
2018-03-03T12:57:15.796Z,97538
2018-03-03T12:59:21.334Z,97535
2018-03-03T13:01:26.881Z,97529
2018-03-03T13:03:32.524Z,97525
2018-03-03T13:05:37.852Z,97530
2018-03-03T13:07:43.298Z,97528
2018-03-03T13:09:49.933Z,97528
2018-03-03T13:11:55.915Z,97532
2018-03-03T13:14:01.246Z,97533
2018-03-03T13:16:08.116Z,97533
2018-03-03T13:18:13.452Z,97533
2018-03-03T13:20:18.856Z,97529
2018-03-03T13:22:25.112Z,97529
2018-03-03T13:24:31.029Z,97530
2018-03-03T13:26:36.859Z,97532
2018-03-03T13:28:42.945Z,97531
2018-03-03T13:30:48.405Z,97520
2018-03-03T13:35:04.715Z,97516
2018-03-03T13:37:10.404Z,97514
2018-03-03T13:39:15.693Z,97517
2018-03-03T13:41:21.336Z,97521
2018-03-03T13:43:26.566Z,97518
2018-03-03T13:45:31.859Z,97516
2018-03-03T13:47:38.055Z,97517
2018-03-03T13:49:46.212Z,97518
2018-03-03T13:51:51.516Z,97522
2018-03-03T13:53:57.027Z,97516
2018-03-03T13:56:04.344Z,97520
2018-03-03T13:58:09.709Z,97525
2018-03-03T14:00:15.425Z,97518
2018-03-03T14:02:20.793Z,97529
2018-03-03T14:04:26.161Z,97536
2018-03-03T14:06:32.836Z,97537
2018-03-03T14:08:38.120Z,97535
2018-03-03T14:10:43.435Z,97538
2018-03-03T14:12:49.016Z,97538
2018-03-03T14:14:54.500Z,97545
2018-03-03T14:17:00.869Z,97553
2018-03-03T14:19:06.615Z,97550
2018-03-03T14:21:12.002Z,97553
2018-03-03T14:23:17.393Z,97547
2018-03-03T14:25:23.116Z,97543
2018-03-03T14:27:28.461Z,97544
2018-03-03T14:29:34.173Z,97545
2018-03-03T14:31:40.013Z,97554
2018-03-03T14:33:46.186Z,97560
2018-03-03T14:35:53.201Z,97561
2018-03-03T14:38:01.593Z,97568
2018-03-03T14:40:07.032Z,97568
2018-03-03T14:42:12.414Z,97569
2018-03-03T14:44:18.258Z,97570
2018-03-03T14:46:23.835Z,97566
2018-03-03T14:48:29.912Z,97572
2018-03-03T14:50:35.633Z,97579
2018-03-03T14:52:41.146Z,97577
2018-03-03T14:54:46.452Z,97579
2018-03-03T14:56:53.303Z,97578
2018-03-03T14:58:58.684Z,97581
2018-03-03T15:01:05.845Z,97571
2018-03-03T15:03:11.564Z,97575
2018-03-03T15:05:16.824Z,97578
2018-03-03T15:07:25.284Z,97578
2018-03-03T15:09:31.026Z,97576
2018-03-03T15:11:36.369Z,97571
2018-03-03T15:13:41.852Z,97575
2018-03-03T15:15:48.684Z,97566
2018-03-03T15:17:54.198Z,97577
2018-03-03T15:20:00.607Z,97573
2018-03-03T15:22:06.376Z,97576
2018-03-03T15:24:11.702Z,97569
2018-03-03T15:26:17.180Z,97580
2018-03-03T15:28:22.756Z,97579
2018-03-03T15:30:28.199Z,97581
2018-03-03T15:32:34.906Z,97587
2018-03-03T15:34:44.776Z,97584
2018-03-03T15:36:50.120Z,97586
2018-03-03T15:38:55.432Z,97588
2018-03-03T15:41:02.788Z,97596
2018-03-03T15:43:08.699Z,97600
2018-03-03T15:45:16.888Z,97601
2018-03-03T15:47:22.564Z,97599
2018-03-03T15:49:27.973Z,97608
2018-03-03T15:51:33.376Z,97608
2018-03-03T15:53:39.004Z,97604
2018-03-03T15:55:44.330Z,97600
2018-03-03T15:57:50.524Z,97603
2018-03-03T15:59:56.561Z,97602
2018-03-03T16:02:03.525Z,97605
2018-03-03T16:04:08.865Z,97610
2018-03-03T16:06:14.555Z,97610
2018-03-03T16:08:20.856Z,97612
2018-03-03T16:10:26.144Z,97613
2018-03-03T16:12:31.944Z,97619
2018-03-03T16:14:37.365Z,97617
2018-03-03T16:16:42.683Z,97622
2018-03-03T16:18:48.407Z,97624
2018-03-03T16:20:53.792Z,97629
2018-03-03T16:22:59.908Z,97627
2018-03-03T16:25:07.019Z,97636
2018-03-03T16:27:12.360Z,97643
2018-03-03T16:29:17.717Z,97642
2018-03-03T16:31:23.903Z,97649
2018-03-03T16:33:29.299Z,97647
2018-03-03T16:35:34.773Z,97652
2018-03-03T16:37:40.543Z,97652
2018-03-03T16:39:45.826Z,97653
2018-03-03T16:41:51.204Z,97650
2018-03-03T16:43:58.893Z,97659
2018-03-03T16:46:04.768Z,97660
2018-03-03T16:48:10.165Z,97664
2018-03-03T16:50:15.890Z,97658
2018-03-03T16:52:21.289Z,97666
2018-03-03T16:54:26.540Z,97671
2018-03-03T16:56:32.221Z,97675
2018-03-03T16:58:37.644Z,97677
2018-03-03T17:00:43.079Z,97673
2018-03-03T17:02:48.862Z,97677
2018-03-03T17:04:54.652Z,97681
2018-03-03T17:07:00.076Z,97680
2018-03-03T17:09:06.731Z,97683
2018-03-03T17:11:12.160Z,97680
2018-03-03T17:13:17.680Z,97682
2018-03-03T17:15:23.873Z,97690
2018-03-03T17:17:29.825Z,97690
2018-03-03T17:19:35.983Z,97699
2018-03-03T17:21:41.863Z,97694
2018-03-03T17:23:47.127Z,97698
2018-03-03T17:25:52.555Z,97703
2018-03-03T17:27:58.151Z,97703
2018-03-03T17:30:05.107Z,97705
2018-03-03T17:32:10.488Z,97702
2018-03-03T17:34:16.280Z,97701
2018-03-03T17:36:21.719Z,97705
2018-03-03T17:38:26.993Z,97705
2018-03-03T17:40:32.671Z,97704
2018-03-03T17:42:37.933Z,97708
2018-03-03T17:44:43.252Z,97712
2018-03-03T17:46:49.010Z,97712
2018-03-03T17:48:54.385Z,97713
2018-03-03T17:50:59.715Z,97715
2018-03-03T17:53:05.543Z,97716
2018-03-03T17:55:16.201Z,97719
2018-03-03T17:57:21.524Z,97722
2018-03-03T17:59:27.243Z,97721
2018-03-03T18:01:33.748Z,97721
2018-03-03T18:03:43.672Z,97719
2018-03-03T18:05:49.372Z,97720
2018-03-03T18:07:55.672Z,97722
2018-03-03T18:10:01.970Z,97721
2018-03-03T18:12:07.681Z,97721
2018-03-03T18:14:13.085Z,97720
2018-03-03T18:16:20.613Z,97721
2018-03-03T18:18:27.266Z,97721
2018-03-03T18:20:32.754Z,97721
2018-03-03T18:22:38.541Z,97722
2018-03-03T18:24:44.166Z,97723
2018-03-03T18:26:50.291Z,97720
2018-03-03T18:28:55.540Z,97720
2018-03-03T18:31:04.778Z,97724
2018-03-03T18:33:10.666Z,97719
2018-03-03T18:35:16.723Z,97717
2018-03-03T18:37:23.345Z,97716
2018-03-03T18:39:30.396Z,97718
2018-03-03T18:41:35.705Z,97714
2018-03-03T18:43:41.700Z,97710
2018-03-03T18:45:47.692Z,97711
2018-03-03T18:47:53.114Z,97717
2018-03-03T18:49:58.888Z,97717
2018-03-03T18:52:06.444Z,97711
2018-03-03T18:54:11.742Z,97707
2018-03-03T18:56:18.257Z,97717
2018-03-03T18:58:24.018Z,97715
2018-03-03T19:00:29.685Z,97712
2018-03-03T19:02:35.752Z,97714
2018-03-03T19:04:41.172Z,97713
2018-03-03T19:06:47.149Z,97710
2018-03-03T19:08:53.883Z,97705
2018-03-03T19:10:59.811Z,97711
2018-03-03T19:13:05.245Z,97709
2018-03-03T19:15:11.466Z,97710
2018-03-03T19:17:17.167Z,97706
2018-03-03T19:19:23.154Z,97713
2018-03-03T19:21:29.054Z,97704
2018-03-03T19:23:37.240Z,97711
2018-03-03T19:25:43.420Z,97709
2018-03-03T19:27:49.241Z,97713
2018-03-03T19:29:54.637Z,97711
2018-03-03T19:32:00.233Z,97718
2018-03-03T19:34:07.535Z,97716
2018-03-03T19:36:13.368Z,97718
2018-03-03T19:38:20.686Z,97718
2018-03-03T19:40:28.949Z,97716
2018-03-03T19:42:35.601Z,97722
2018-03-03T19:44:41.111Z,97724
2018-03-03T19:46:48.544Z,97725
2018-03-03T19:48:54.308Z,97724
2018-03-03T19:51:00.140Z,97722
2018-03-03T19:53:06.871Z,97727
2018-03-03T19:55:12.758Z,97729
2018-03-03T19:57:18.598Z,97732
2018-03-03T19:59:24.482Z,97734
2018-03-03T20:01:30.056Z,97737
2018-03-03T20:03:35.728Z,97741
2018-03-03T20:05:42.233Z,97743
2018-03-03T20:07:48.553Z,97739
2018-03-03T20:09:54.520Z,97743
2018-03-03T20:12:00.196Z,97745
2018-03-03T20:14:06.509Z,97748
2018-03-03T20:16:13.033Z,97749
2018-03-03T20:18:19.535Z,97755
2018-03-03T20:20:26.069Z,97749
2018-03-03T20:22:32.485Z,97750
2018-03-03T20:24:41.100Z,97753
2018-03-03T20:26:47.042Z,97751
2018-03-03T20:28:53.305Z,97753
2018-03-03T20:31:00.427Z,97752
2018-03-03T20:33:06.079Z,97755
2018-03-03T20:35:12.513Z,97758
2018-03-03T20:37:22.702Z,97758
2018-03-03T20:39:28.056Z,97761
2018-03-03T20:41:33.744Z,97761
2018-03-03T20:43:39.401Z,97757
2018-03-03T20:45:44.815Z,97757
2018-03-03T20:47:50.771Z,97754
2018-03-03T20:49:56.672Z,97753
2018-03-03T20:52:02.169Z,97755
2018-03-03T20:54:08.250Z,97754
2018-03-03T20:56:16.620Z,97750
2018-03-03T20:58:22.847Z,97754
2018-03-03T21:00:28.128Z,97750
2018-03-03T21:02:34.438Z,97746
2018-03-03T21:04:40.614Z,97747
2018-03-03T21:06:46.033Z,97741
2018-03-03T21:08:51.975Z,97745
2018-03-03T21:10:58.785Z,97745
2018-03-03T21:13:04.564Z,97746
2018-03-03T21:15:10.265Z,97749
2018-03-03T21:17:17.216Z,97752
2018-03-03T21:19:22.516Z,97754
2018-03-03T21:21:28.081Z,97751
2018-03-03T21:23:33.400Z,97751
2018-03-03T21:25:38.839Z,97752
2018-03-03T21:27:45.367Z,97750
2018-03-03T21:29:52.884Z,97746
2018-03-03T21:31:58.907Z,97747
2018-03-03T21:34:06.201Z,97745
2018-03-03T21:36:11.789Z,97748
2018-03-03T21:38:17.009Z,97751
2018-03-03T21:40:22.656Z,97746
2018-03-03T21:42:29.270Z,97744
2018-03-03T21:44:37.461Z,97743
2018-03-03T21:46:43.219Z,97744
2018-03-03T21:48:48.635Z,97745
2018-03-03T21:50:57.661Z,97746
2018-03-03T21:53:08.764Z,97753
2018-03-03T21:55:14.865Z,97752
2018-03-03T21:57:20.456Z,97748
2018-03-03T21:59:26.044Z,97750
2018-03-03T22:01:32.348Z,97749
2018-03-03T22:03:41.608Z,97752
2018-03-03T22:05:48.909Z,97741
2018-03-03T22:07:54.244Z,97742
2018-03-03T22:09:59.588Z,97739
2018-03-03T22:12:05.761Z,97743
2018-03-03T22:14:12.376Z,97741
2018-03-03T22:16:18.289Z,97742
2018-03-03T22:18:24.625Z,97742
2018-03-03T22:20:32.068Z,97737
2018-03-03T22:22:41.952Z,97737
2018-03-03T22:24:48.210Z,97740
2018-03-03T22:26:54.348Z,97738
2018-03-03T22:29:01.972Z,97740
2018-03-03T22:31:07.979Z,97738
2018-03-03T22:33:13.444Z,97748
2018-03-03T22:35:18.756Z,97748
2018-03-03T22:39:35.406Z,97747
2018-03-03T22:41:40.690Z,97746
2018-03-03T22:43:46.362Z,97744
2018-03-03T22:45:52.024Z,97744
2018-03-03T22:47:58.470Z,97744
2018-03-03T22:50:07.566Z,97733
2018-03-03T22:52:13.229Z,97738
2018-03-03T22:54:18.567Z,97741
2018-03-03T22:56:24.786Z,97741
2018-03-03T22:58:30.185Z,97739
2018-03-03T23:00:35.556Z,97737
2018-03-03T23:02:42.092Z,97738
2018-03-03T23:04:47.390Z,97740
2018-03-03T23:06:53.548Z,97739
2018-03-03T23:09:01.216Z,97742
2018-03-03T23:11:06.602Z,97751
2018-03-03T23:13:12.399Z,97758
2018-03-03T23:15:18.463Z,97763
2018-03-03T23:17:24.406Z,97766
2018-03-03T23:19:39.764Z,97762
2018-03-03T23:21:50.863Z,97762
2018-03-03T23:23:57.329Z,97769
2018-03-03T23:26:03.361Z,97768
2018-03-03T23:28:09.373Z,97768
2018-03-03T23:30:14.671Z,97761
2018-03-03T23:32:21.369Z,97768
2018-03-03T23:34:27.073Z,97764
2018-03-03T23:36:32.298Z,97758
2018-03-03T23:38:38.133Z,97763
2018-03-03T23:40:44.656Z,97760
2018-03-03T23:42:49.895Z,97757
2018-03-03T23:44:56.183Z,97761
2018-03-03T23:47:02.580Z,97768
2018-03-03T23:49:07.929Z,97765
2018-03-03T23:51:14.139Z,97766
2018-03-03T23:53:20.535Z,97766
2018-03-03T23:55:26.685Z,97770
2018-03-03T23:57:32.896Z,97772
2018-03-03T23:59:38.871Z,97777
